sensor_id;sensor_type;location;lat;lon;timestamp;P1;durP1;ratioP1;P2;durP2;ratioP2
4363;SDS011;15337;48.202;12.770;2022-09-27T00:00:34;3.47;;;3.27;;
4363;SDS011;15337;48.202;12.770;2022-09-27T00:03:01;2.90;;;2.70;;
4363;SDS011;15337;48.202;12.770;2022-09-27T00:05:28;5.33;;;2.93;;
4363;SDS011;15337;48.202;12.770;2022-09-27T00:07:55;4.77;;;2.90;;
4363;SDS011;15337;48.202;12.770;2022-09-27T00:10:22;3.53;;;3.33;;
4363;SDS011;15337;48.202;12.770;2022-09-27T00:12:49;8.80;;;3.33;;
4363;SDS011;15337;48.202;12.770;2022-09-27T00:15:17;3.17;;;2.97;;
4363;SDS011;15337;48.202;12.770;2022-09-27T00:17:45;3.80;;;3.50;;
4363;SDS011;15337;48.202;12.770;2022-09-27T00:20:16;4.30;;;4.00;;
4363;SDS011;15337;48.202;12.770;2022-09-27T00:22:44;4.57;;;3.87;;
4363;SDS011;15337;48.202;12.770;2022-09-27T00:25:12;4.07;;;3.77;;
4363;SDS011;15337;48.202;12.770;2022-09-27T00:27:39;4.73;;;3.80;;
4363;SDS011;15337;48.202;12.770;2022-09-27T00:30:07;3.80;;;3.60;;
4363;SDS011;15337;48.202;12.770;2022-09-27T00:32:34;4.10;;;3.17;;
4363;SDS011;15337;48.202;12.770;2022-09-27T00:35:03;3.90;;;3.70;;
4363;SDS011;15337;48.202;12.770;2022-09-27T00:37:30;4.20;;;3.63;;
4363;SDS011;15337;48.202;12.770;2022-09-27T00:39:57;3.50;;;3.20;;
4363;SDS011;15337;48.202;12.770;2022-09-27T00:42:24;3.80;;;3.60;;
4363;SDS011;15337;48.202;12.770;2022-09-27T00:45:03;4.17;;;3.40;;
4363;SDS011;15337;48.202;12.770;2022-09-27T00:47:43;4.60;;;3.50;;
4363;SDS011;15337;48.202;12.770;2022-09-27T00:50:24;4.00;;;3.80;;
4363;SDS011;15337;48.202;12.770;2022-09-27T00:52:57;3.63;;;3.43;;
4363;SDS011;15337;48.202;12.770;2022-09-27T00:55:30;3.93;;;3.63;;
4363;SDS011;15337;48.202;12.770;2022-09-27T00:58:02;3.83;;;3.30;;
4363;SDS011;15337;48.202;12.770;2022-09-27T01:00:30;3.40;;;3.20;;
4363;SDS011;15337;48.202;12.770;2022-09-27T01:02:57;4.83;;;4.43;;
4363;SDS011;15337;48.202;12.770;2022-09-27T01:05:26;4.10;;;3.80;;
4363;SDS011;15337;48.202;12.770;2022-09-27T01:07:54;4.57;;;4.27;;
4363;SDS011;15337;48.202;12.770;2022-09-27T01:10:24;4.50;;;3.67;;
4363;SDS011;15337;48.202;12.770;2022-09-27T01:12:58;3.93;;;3.73;;
4363;SDS011;15337;48.202;12.770;2022-09-27T01:15:35;4.10;;;3.90;;
4363;SDS011;15337;48.202;12.770;2022-09-27T01:18:15;4.50;;;4.20;;
4363;SDS011;15337;48.202;12.770;2022-09-27T01:21:07;5.20;;;4.40;;
4363;SDS011;15337;48.202;12.770;2022-09-27T01:23:58;4.10;;;3.90;;
4363;SDS011;15337;48.202;12.770;2022-09-27T01:29:40;6.17;;;4.53;;
4363;SDS011;15337;48.202;12.770;2022-09-27T01:32:20;21.13;;;4.83;;
4363;SDS011;15337;48.202;12.770;2022-09-27T01:34:52;4.90;;;4.50;;
4363;SDS011;15337;48.202;12.770;2022-09-27T01:37:29;4.73;;;4.30;;
4363;SDS011;15337;48.202;12.770;2022-09-27T01:40:06;4.57;;;4.17;;
4363;SDS011;15337;48.202;12.770;2022-09-27T01:42:38;4.47;;;4.17;;
4363;SDS011;15337;48.202;12.770;2022-09-27T01:45:12;6.10;;;4.60;;
4363;SDS011;15337;48.202;12.770;2022-09-27T01:47:48;4.70;;;4.37;;
4363;SDS011;15337;48.202;12.770;2022-09-27T01:50:20;4.37;;;4.07;;
4363;SDS011;15337;48.202;12.770;2022-09-27T01:52:50;5.10;;;3.83;;
4363;SDS011;15337;48.202;12.770;2022-09-27T01:55:20;4.43;;;4.03;;
4363;SDS011;15337;48.202;12.770;2022-09-27T01:57:53;4.87;;;4.47;;
4363;SDS011;15337;48.202;12.770;2022-09-27T02:00:24;6.17;;;3.60;;
4363;SDS011;15337;48.202;12.770;2022-09-27T02:02:54;7.80;;;4.50;;
4363;SDS011;15337;48.202;12.770;2022-09-27T02:05:24;5.40;;;5.07;;
4363;SDS011;15337;48.202;12.770;2022-09-27T02:07:56;6.10;;;4.70;;
4363;SDS011;15337;48.202;12.770;2022-09-27T02:10:26;5.80;;;4.43;;
4363;SDS011;15337;48.202;12.770;2022-09-27T02:12:59;5.67;;;5.20;;
4363;SDS011;15337;48.202;12.770;2022-09-27T02:15:29;7.80;;;7.23;;
4363;SDS011;15337;48.202;12.770;2022-09-27T02:18:09;9.00;;;7.17;;
4363;SDS011;15337;48.202;12.770;2022-09-27T02:20:44;6.97;;;6.37;;
4363;SDS011;15337;48.202;12.770;2022-09-27T02:23:17;5.40;;;4.90;;
4363;SDS011;15337;48.202;12.770;2022-09-27T02:25:49;5.90;;;5.40;;
4363;SDS011;15337;48.202;12.770;2022-09-27T02:28:22;5.27;;;4.57;;
4363;SDS011;15337;48.202;12.770;2022-09-27T02:30:53;6.43;;;4.70;;
4363;SDS011;15337;48.202;12.770;2022-09-27T02:33:23;11.20;;;5.57;;
4363;SDS011;15337;48.202;12.770;2022-09-27T02:35:55;9.07;;;4.17;;
4363;SDS011;15337;48.202;12.770;2022-09-27T02:38:22;5.03;;;4.63;;
4363;SDS011;15337;48.202;12.770;2022-09-27T02:40:49;4.77;;;4.47;;
4363;SDS011;15337;48.202;12.770;2022-09-27T02:43:16;4.67;;;4.37;;
4363;SDS011;15337;48.202;12.770;2022-09-27T02:45:49;4.80;;;4.50;;
4363;SDS011;15337;48.202;12.770;2022-09-27T02:48:29;4.73;;;4.43;;
4363;SDS011;15337;48.202;12.770;2022-09-27T02:53:58;7.07;;;5.10;;
4363;SDS011;15337;48.202;12.770;2022-09-27T02:56:38;5.10;;;4.60;;
4363;SDS011;15337;48.202;12.770;2022-09-27T02:59:12;7.10;;;4.53;;
4363;SDS011;15337;48.202;12.770;2022-09-27T03:01:47;4.90;;;4.57;;
4363;SDS011;15337;48.202;12.770;2022-09-27T03:04:26;6.00;;;5.60;;
4363;SDS011;15337;48.202;12.770;2022-09-27T03:06:59;5.70;;;5.33;;
4363;SDS011;15337;48.202;12.770;2022-09-27T03:09:28;5.53;;;5.23;;
4363;SDS011;15337;48.202;12.770;2022-09-27T03:12:05;11.77;;;6.07;;
4363;SDS011;15337;48.202;12.770;2022-09-27T03:14:32;10.53;;;5.13;;
4363;SDS011;15337;48.202;12.770;2022-09-27T03:16:59;6.07;;;5.47;;
4363;SDS011;15337;48.202;12.770;2022-09-27T03:19:27;12.40;;;5.13;;
4363;SDS011;15337;48.202;12.770;2022-09-27T03:21:54;5.33;;;5.00;;
4363;SDS011;15337;48.202;12.770;2022-09-27T03:24:21;7.07;;;6.57;;
4363;SDS011;15337;48.202;12.770;2022-09-27T03:26:48;6.10;;;5.60;;
4363;SDS011;15337;48.202;12.770;2022-09-27T03:29:15;5.60;;;5.10;;
4363;SDS011;15337;48.202;12.770;2022-09-27T03:31:42;6.33;;;4.57;;
4363;SDS011;15337;48.202;12.770;2022-09-27T03:34:09;5.90;;;5.40;;
4363;SDS011;15337;48.202;12.770;2022-09-27T03:36:38;6.20;;;5.80;;
4363;SDS011;15337;48.202;12.770;2022-09-27T03:39:05;5.90;;;5.40;;
4363;SDS011;15337;48.202;12.770;2022-09-27T03:41:31;6.27;;;5.80;;
4363;SDS011;15337;48.202;12.770;2022-09-27T03:43:59;7.37;;;6.80;;
4363;SDS011;15337;48.202;12.770;2022-09-27T03:46:26;7.57;;;7.07;;
4363;SDS011;15337;48.202;12.770;2022-09-27T03:48:53;7.47;;;6.80;;
4363;SDS011;15337;48.202;12.770;2022-09-27T03:51:20;5.20;;;4.90;;
4363;SDS011;15337;48.202;12.770;2022-09-27T03:53:49;6.47;;;6.07;;
4363;SDS011;15337;48.202;12.770;2022-09-27T03:56:16;5.10;;;4.70;;
4363;SDS011;15337;48.202;12.770;2022-09-27T03:58:43;5.80;;;5.50;;
4363;SDS011;15337;48.202;12.770;2022-09-27T04:01:10;5.30;;;5.00;;
4363;SDS011;15337;48.202;12.770;2022-09-27T04:03:37;6.60;;;5.90;;
4363;SDS011;15337;48.202;12.770;2022-09-27T04:06:05;6.90;;;6.40;;
4363;SDS011;15337;48.202;12.770;2022-09-27T04:08:32;6.93;;;5.17;;
4363;SDS011;15337;48.202;12.770;2022-09-27T04:11:01;5.97;;;5.47;;
4363;SDS011;15337;48.202;12.770;2022-09-27T04:13:28;5.53;;;5.13;;
4363;SDS011;15337;48.202;12.770;2022-09-27T04:15:55;7.70;;;7.00;;
4363;SDS011;15337;48.202;12.770;2022-09-27T04:18:22;13.80;;;11.73;;
4363;SDS011;15337;48.202;12.770;2022-09-27T04:20:49;11.97;;;10.77;;
4363;SDS011;15337;48.202;12.770;2022-09-27T04:23:16;5.70;;;5.30;;
4363;SDS011;15337;48.202;12.770;2022-09-27T04:25:43;7.50;;;6.77;;
4363;SDS011;15337;48.202;12.770;2022-09-27T04:28:12;6.07;;;5.57;;
4363;SDS011;15337;48.202;12.770;2022-09-27T04:30:39;7.87;;;7.17;;
4363;SDS011;15337;48.202;12.770;2022-09-27T04:33:06;8.23;;;7.60;;
4363;SDS011;15337;48.202;12.770;2022-09-27T04:35:33;9.93;;;9.13;;
4363;SDS011;15337;48.202;12.770;2022-09-27T04:38:17;7.93;;;7.43;;
4363;SDS011;15337;48.202;12.770;2022-09-27T04:40:48;9.20;;;8.50;;
4363;SDS011;15337;48.202;12.770;2022-09-27T04:43:16;8.23;;;7.27;;
4363;SDS011;15337;48.202;12.770;2022-09-27T04:45:44;5.87;;;5.37;;
4363;SDS011;15337;48.202;12.770;2022-09-27T04:48:10;10.93;;;6.13;;
4363;SDS011;15337;48.202;12.770;2022-09-27T04:50:37;8.00;;;5.50;;
4363;SDS011;15337;48.202;12.770;2022-09-27T04:53:05;5.30;;;4.80;;
4363;SDS011;15337;48.202;12.770;2022-09-27T04:55:32;9.20;;;4.60;;
4363;SDS011;15337;48.202;12.770;2022-09-27T04:57:59;6.10;;;5.70;;
4363;SDS011;15337;48.202;12.770;2022-09-27T05:00:28;8.77;;;7.90;;
4363;SDS011;15337;48.202;12.770;2022-09-27T05:02:56;8.87;;;8.07;;
4363;SDS011;15337;48.202;12.770;2022-09-27T05:05:22;10.30;;;9.50;;
4363;SDS011;15337;48.202;12.770;2022-09-27T05:07:49;8.47;;;7.60;;
4363;SDS011;15337;48.202;12.770;2022-09-27T05:10:16;9.77;;;7.37;;
4363;SDS011;15337;48.202;12.770;2022-09-27T05:12:44;7.33;;;6.60;;
4363;SDS011;15337;48.202;12.770;2022-09-27T05:15:10;9.07;;;8.13;;
4363;SDS011;15337;48.202;12.770;2022-09-27T05:17:39;7.53;;;6.93;;
4363;SDS011;15337;48.202;12.770;2022-09-27T05:20:06;7.50;;;6.90;;
4363;SDS011;15337;48.202;12.770;2022-09-27T05:22:34;6.50;;;5.90;;
4363;SDS011;15337;48.202;12.770;2022-09-27T05:25:02;10.60;;;6.87;;
4363;SDS011;15337;48.202;12.770;2022-09-27T05:27:29;5.93;;;5.53;;
4363;SDS011;15337;48.202;12.770;2022-09-27T05:29:56;6.97;;;6.47;;
4363;SDS011;15337;48.202;12.770;2022-09-27T05:32:24;6.27;;;5.77;;
4363;SDS011;15337;48.202;12.770;2022-09-27T05:34:52;8.17;;;7.37;;
4363;SDS011;15337;48.202;12.770;2022-09-27T05:37:20;7.80;;;7.13;;
4363;SDS011;15337;48.202;12.770;2022-09-27T05:39:47;5.67;;;5.13;;
4363;SDS011;15337;48.202;12.770;2022-09-27T05:42:14;4.93;;;4.60;;
4363;SDS011;15337;48.202;12.770;2022-09-27T05:44:41;4.93;;;4.50;;
4363;SDS011;15337;48.202;12.770;2022-09-27T05:47:12;4.47;;;4.07;;
4363;SDS011;15337;48.202;12.770;2022-09-27T05:49:40;4.20;;;3.90;;
4363;SDS011;15337;48.202;12.770;2022-09-27T05:52:08;3.90;;;3.60;;
4363;SDS011;15337;48.202;12.770;2022-09-27T05:54:35;3.87;;;3.50;;
4363;SDS011;15337;48.202;12.770;2022-09-27T05:57:02;6.50;;;4.03;;
4363;SDS011;15337;48.202;12.770;2022-09-27T05:59:30;5.93;;;5.33;;
4363;SDS011;15337;48.202;12.770;2022-09-27T06:01:57;12.90;;;9.30;;
4363;SDS011;15337;48.202;12.770;2022-09-27T06:04:26;9.63;;;9.03;;
4363;SDS011;15337;48.202;12.770;2022-09-27T06:06:53;5.43;;;5.13;;
4363;SDS011;15337;48.202;12.770;2022-09-27T06:09:24;4.57;;;4.27;;
4363;SDS011;15337;48.202;12.770;2022-09-27T06:11:52;3.13;;;2.93;;
4363;SDS011;15337;48.202;12.770;2022-09-27T06:14:19;5.73;;;3.63;;
4363;SDS011;15337;48.202;12.770;2022-09-27T06:16:46;5.33;;;4.00;;
4363;SDS011;15337;48.202;12.770;2022-09-27T06:19:13;3.33;;;3.03;;
4363;SDS011;15337;48.202;12.770;2022-09-27T06:21:40;3.63;;;3.33;;
4363;SDS011;15337;48.202;12.770;2022-09-27T06:24:07;2.87;;;2.67;;
4363;SDS011;15337;48.202;12.770;2022-09-27T06:26:36;3.10;;;2.90;;
4363;SDS011;15337;48.202;12.770;2022-09-27T06:29:03;6.50;;;3.30;;
4363;SDS011;15337;48.202;12.770;2022-09-27T06:31:30;3.20;;;3.00;;
4363;SDS011;15337;48.202;12.770;2022-09-27T06:33:57;3.60;;;3.30;;
4363;SDS011;15337;48.202;12.770;2022-09-27T06:36:24;4.97;;;3.47;;
4363;SDS011;15337;48.202;12.770;2022-09-27T06:38:51;3.00;;;2.80;;
4363;SDS011;15337;48.202;12.770;2022-09-27T06:41:18;3.40;;;3.10;;
4363;SDS011;15337;48.202;12.770;2022-09-27T06:43:48;3.23;;;3.03;;
4363;SDS011;15337;48.202;12.770;2022-09-27T06:46:15;2.83;;;2.63;;
4363;SDS011;15337;48.202;12.770;2022-09-27T06:48:42;3.03;;;2.83;;
4363;SDS011;15337;48.202;12.770;2022-09-27T06:51:09;3.50;;;2.50;;
4363;SDS011;15337;48.202;12.770;2022-09-27T06:53:36;3.30;;;3.10;;
4363;SDS011;15337;48.202;12.770;2022-09-27T06:56:03;2.90;;;2.70;;
4363;SDS011;15337;48.202;12.770;2022-09-27T06:58:30;3.40;;;3.20;;
4363;SDS011;15337;48.202;12.770;2022-09-27T07:01:15;3.77;;;3.57;;
4363;SDS011;15337;48.202;12.770;2022-09-27T07:03:42;4.03;;;3.73;;
4363;SDS011;15337;48.202;12.770;2022-09-27T07:06:15;4.73;;;3.53;;
4363;SDS011;15337;48.202;12.770;2022-09-27T07:08:44;4.20;;;3.73;;
4363;SDS011;15337;48.202;12.770;2022-09-27T07:11:15;3.83;;;3.63;;
4363;SDS011;15337;48.202;12.770;2022-09-27T07:13:42;3.27;;;3.07;;
4363;SDS011;15337;48.202;12.770;2022-09-27T07:16:10;4.77;;;4.47;;
4363;SDS011;15337;48.202;12.770;2022-09-27T07:18:39;3.93;;;3.73;;
4363;SDS011;15337;48.202;12.770;2022-09-27T07:21:07;4.87;;;4.57;;
4363;SDS011;15337;48.202;12.770;2022-09-27T07:23:34;4.30;;;3.90;;
4363;SDS011;15337;48.202;12.770;2022-09-27T07:26:02;3.97;;;3.67;;
4363;SDS011;15337;48.202;12.770;2022-09-27T07:28:31;4.73;;;4.33;;
4363;SDS011;15337;48.202;12.770;2022-09-27T07:30:59;4.73;;;4.17;;
4363;SDS011;15337;48.202;12.770;2022-09-27T07:33:27;4.50;;;4.20;;
4363;SDS011;15337;48.202;12.770;2022-09-27T07:35:55;4.60;;;4.30;;
4363;SDS011;15337;48.202;12.770;2022-09-27T07:38:22;4.70;;;4.40;;
4363;SDS011;15337;48.202;12.770;2022-09-27T07:40:49;4.17;;;3.97;;
4363;SDS011;15337;48.202;12.770;2022-09-27T07:43:16;4.17;;;3.87;;
4363;SDS011;15337;48.202;12.770;2022-09-27T07:45:44;5.27;;;4.73;;
4363;SDS011;15337;48.202;12.770;2022-09-27T07:48:12;4.53;;;4.33;;
4363;SDS011;15337;48.202;12.770;2022-09-27T07:50:40;7.00;;;5.40;;
4363;SDS011;15337;48.202;12.770;2022-09-27T07:53:09;4.90;;;4.33;;
4363;SDS011;15337;48.202;12.770;2022-09-27T07:55:38;4.20;;;3.43;;
4363;SDS011;15337;48.202;12.770;2022-09-27T07:58:06;3.60;;;3.40;;
4363;SDS011;15337;48.202;12.770;2022-09-27T08:00:35;3.23;;;3.03;;
4363;SDS011;15337;48.202;12.770;2022-09-27T08:03:05;3.20;;;2.90;;
4363;SDS011;15337;48.202;12.770;2022-09-27T08:05:32;2.73;;;2.53;;
4363;SDS011;15337;48.202;12.770;2022-09-27T08:08:00;2.40;;;2.20;;
4363;SDS011;15337;48.202;12.770;2022-09-27T08:10:29;2.77;;;2.57;;
4363;SDS011;15337;48.202;12.770;2022-09-27T08:12:57;2.40;;;2.23;;
4363;SDS011;15337;48.202;12.770;2022-09-27T08:15:25;2.17;;;2.07;;
4363;SDS011;15337;48.202;12.770;2022-09-27T08:17:52;2.50;;;2.30;;
4363;SDS011;15337;48.202;12.770;2022-09-27T08:20:19;2.07;;;1.97;;
4363;SDS011;15337;48.202;12.770;2022-09-27T08:22:46;2.60;;;2.40;;
4363;SDS011;15337;48.202;12.770;2022-09-27T08:25:13;2.50;;;2.30;;
4363;SDS011;15337;48.202;12.770;2022-09-27T08:27:42;2.30;;;2.17;;
4363;SDS011;15337;48.202;12.770;2022-09-27T08:30:09;2.50;;;2.30;;
4363;SDS011;15337;48.202;12.770;2022-09-27T08:32:36;3.00;;;2.80;;
4363;SDS011;15337;48.202;12.770;2022-09-27T08:35:04;3.80;;;3.50;;
4363;SDS011;15337;48.202;12.770;2022-09-27T08:37:32;3.50;;;3.30;;
4363;SDS011;15337;48.202;12.770;2022-09-27T08:39:59;3.90;;;2.47;;
4363;SDS011;15337;48.202;12.770;2022-09-27T08:42:30;3.60;;;3.30;;
4363;SDS011;15337;48.202;12.770;2022-09-27T08:45:09;2.63;;;2.43;;
4363;SDS011;15337;48.202;12.770;2022-09-27T08:47:42;2.07;;;1.87;;
4363;SDS011;15337;48.202;12.770;2022-09-27T08:50:23;2.57;;;2.00;;
4363;SDS011;15337;48.202;12.770;2022-09-27T08:52:55;2.33;;;2.13;;
4363;SDS011;15337;48.202;12.770;2022-09-27T08:55:26;3.40;;;2.23;;
4363;SDS011;15337;48.202;12.770;2022-09-27T08:57:57;5.20;;;2.77;;
4363;SDS011;15337;48.202;12.770;2022-09-27T09:00:27;2.30;;;2.10;;
4363;SDS011;15337;48.202;12.770;2022-09-27T09:02:55;2.57;;;2.37;;
4363;SDS011;15337;48.202;12.770;2022-09-27T09:05:27;2.00;;;1.90;;
4363;SDS011;15337;48.202;12.770;2022-09-27T09:08:08;6.70;;;2.13;;
4363;SDS011;15337;48.202;12.770;2022-09-27T09:10:53;3.00;;;1.70;;
4363;SDS011;15337;48.202;12.770;2022-09-27T09:13:47;2.27;;;2.07;;
4363;SDS011;15337;48.202;12.770;2022-09-27T09:16:40;5.30;;;1.80;;
4363;SDS011;15337;48.202;12.770;2022-09-27T09:19:18;2.00;;;1.80;;
4363;SDS011;15337;48.202;12.770;2022-09-27T09:21:58;2.30;;;1.93;;
4363;SDS011;15337;48.202;12.770;2022-09-27T09:24:42;2.93;;;1.80;;
4363;SDS011;15337;48.202;12.770;2022-09-27T09:27:23;3.73;;;2.03;;
4363;SDS011;15337;48.202;12.770;2022-09-27T09:30:04;3.10;;;2.90;;
4363;SDS011;15337;48.202;12.770;2022-09-27T09:32:48;2.43;;;2.23;;
4363;SDS011;15337;48.202;12.770;2022-09-27T09:35:30;4.50;;;3.70;;
4363;SDS011;15337;48.202;12.770;2022-09-27T09:38:02;1.47;;;1.30;;
4363;SDS011;15337;48.202;12.770;2022-09-27T09:40:33;6.80;;;2.40;;
4363;SDS011;15337;48.202;12.770;2022-09-27T09:43:09;1.30;;;1.20;;
4363;SDS011;15337;48.202;12.770;2022-09-27T09:45:42;1.73;;;1.00;;
4363;SDS011;15337;48.202;12.770;2022-09-27T09:48:15;2.07;;;1.97;;
4363;SDS011;15337;48.202;12.770;2022-09-27T09:50:50;3.27;;;1.70;;
4363;SDS011;15337;48.202;12.770;2022-09-27T09:53:20;2.07;;;1.77;;
4363;SDS011;15337;48.202;12.770;2022-09-27T09:55:51;4.33;;;1.40;;
4363;SDS011;15337;48.202;12.770;2022-09-27T09:58:23;1.93;;;1.67;;
4363;SDS011;15337;48.202;12.770;2022-09-27T10:00:56;1.53;;;1.43;;
4363;SDS011;15337;48.202;12.770;2022-09-27T10:03:35;2.37;;;2.17;;
4363;SDS011;15337;48.202;12.770;2022-09-27T10:06:02;2.50;;;2.30;;
4363;SDS011;15337;48.202;12.770;2022-09-27T10:08:29;2.13;;;2.03;;
4363;SDS011;15337;48.202;12.770;2022-09-27T10:10:57;1.50;;;1.40;;
4363;SDS011;15337;48.202;12.770;2022-09-27T10:13:24;3.13;;;2.30;;
4363;SDS011;15337;48.202;12.770;2022-09-27T10:15:52;3.20;;;2.90;;
4363;SDS011;15337;48.202;12.770;2022-09-27T10:18:26;3.10;;;2.40;;
4363;SDS011;15337;48.202;12.770;2022-09-27T10:20:56;1.43;;;1.33;;
4363;SDS011;15337;48.202;12.770;2022-09-27T10:23:27;1.60;;;1.40;;
4363;SDS011;15337;48.202;12.770;2022-09-27T10:25:54;6.30;;;2.80;;
4363;SDS011;15337;48.202;12.770;2022-09-27T10:28:33;1.43;;;1.33;;
4363;SDS011;15337;48.202;12.770;2022-09-27T10:31:03;6.90;;;2.30;;
4363;SDS011;15337;48.202;12.770;2022-09-27T10:33:32;3.10;;;1.47;;
4363;SDS011;15337;48.202;12.770;2022-09-27T10:36:03;2.07;;;1.80;;
4363;SDS011;15337;48.202;12.770;2022-09-27T10:38:50;2.37;;;2.17;;
4363;SDS011;15337;48.202;12.770;2022-09-27T10:41:22;2.53;;;2.33;;
4363;SDS011;15337;48.202;12.770;2022-09-27T10:43:52;2.50;;;1.77;;
4363;SDS011;15337;48.202;12.770;2022-09-27T10:46:22;2.03;;;1.80;;
4363;SDS011;15337;48.202;12.770;2022-09-27T10:49:06;2.63;;;2.43;;
4363;SDS011;15337;48.202;12.770;2022-09-27T10:51:35;2.00;;;1.70;;
4363;SDS011;15337;48.202;12.770;2022-09-27T10:54:03;1.57;;;1.47;;
4363;SDS011;15337;48.202;12.770;2022-09-27T10:56:31;1.37;;;1.17;;
4363;SDS011;15337;48.202;12.770;2022-09-27T10:58:59;1.40;;;1.23;;
4363;SDS011;15337;48.202;12.770;2022-09-27T11:01:37;1.80;;;1.20;;
4363;SDS011;15337;48.202;12.770;2022-09-27T11:04:06;1.37;;;1.27;;
4363;SDS011;15337;48.202;12.770;2022-09-27T11:06:42;1.20;;;1.10;;
4363;SDS011;15337;48.202;12.770;2022-09-27T11:09:14;1.40;;;1.30;;
4363;SDS011;15337;48.202;12.770;2022-09-27T11:11:44;2.77;;;1.73;;
4363;SDS011;15337;48.202;12.770;2022-09-27T11:14:19;1.63;;;1.53;;
4363;SDS011;15337;48.202;12.770;2022-09-27T11:16:51;1.30;;;1.07;;
4363;SDS011;15337;48.202;12.770;2022-09-27T11:19:35;5.40;;;1.20;;
4363;SDS011;15337;48.202;12.770;2022-09-27T11:22:21;3.57;;;1.40;;
4363;SDS011;15337;48.202;12.770;2022-09-27T11:25:12;2.37;;;1.77;;
4363;SDS011;15337;48.202;12.770;2022-09-27T11:27:49;1.90;;;1.70;;
4363;SDS011;15337;48.202;12.770;2022-09-27T11:30:28;1.80;;;1.70;;
4363;SDS011;15337;48.202;12.770;2022-09-27T11:33:17;2.90;;;1.43;;
4363;SDS011;15337;48.202;12.770;2022-09-27T11:36:00;1.40;;;1.30;;
4363;SDS011;15337;48.202;12.770;2022-09-27T11:38:35;3.93;;;1.50;;
4363;SDS011;15337;48.202;12.770;2022-09-27T11:44:17;1.43;;;1.17;;
4363;SDS011;15337;48.202;12.770;2022-09-27T11:46:57;2.10;;;1.90;;
4363;SDS011;15337;48.202;12.770;2022-09-27T11:49:43;1.40;;;1.30;;
4363;SDS011;15337;48.202;12.770;2022-09-27T11:52:39;1.60;;;1.30;;
4363;SDS011;15337;48.202;12.770;2022-09-27T11:55:27;1.53;;;1.43;;
4363;SDS011;15337;48.202;12.770;2022-09-27T11:58:03;1.97;;;1.33;;
4363;SDS011;15337;48.202;12.770;2022-09-27T12:00:43;2.10;;;1.90;;
4363;SDS011;15337;48.202;12.770;2022-09-27T12:03:30;1.50;;;1.40;;
4363;SDS011;15337;48.202;12.770;2022-09-27T12:06:14;1.20;;;1.10;;
4363;SDS011;15337;48.202;12.770;2022-09-27T12:08:49;1.40;;;1.10;;
4363;SDS011;15337;48.202;12.770;2022-09-27T12:11:28;1.50;;;1.10;;
4363;SDS011;15337;48.202;12.770;2022-09-27T12:14:02;1.10;;;0.90;;
4363;SDS011;15337;48.202;12.770;2022-09-27T12:16:32;1.10;;;0.90;;
4363;SDS011;15337;48.202;12.770;2022-09-27T12:19:02;1.40;;;1.23;;
4363;SDS011;15337;48.202;12.770;2022-09-27T12:21:34;1.60;;;1.50;;
4363;SDS011;15337;48.202;12.770;2022-09-27T12:24:01;1.40;;;1.30;;
4363;SDS011;15337;48.202;12.770;2022-09-27T12:26:33;1.63;;;1.23;;
4363;SDS011;15337;48.202;12.770;2022-09-27T12:29:04;1.97;;;1.13;;
4363;SDS011;15337;48.202;12.770;2022-09-27T12:31:40;1.80;;;1.40;;
4363;SDS011;15337;48.202;12.770;2022-09-27T12:34:13;1.30;;;1.03;;
4363;SDS011;15337;48.202;12.770;2022-09-27T12:36:45;1.13;;;0.97;;
4363;SDS011;15337;48.202;12.770;2022-09-27T12:39:16;8.93;;;1.27;;
4363;SDS011;15337;48.202;12.770;2022-09-27T12:41:49;1.60;;;1.30;;
4363;SDS011;15337;48.202;12.770;2022-09-27T12:44:25;1.87;;;0.90;;
4363;SDS011;15337;48.202;12.770;2022-09-27T12:46:55;1.30;;;1.20;;
4363;SDS011;15337;48.202;12.770;2022-09-27T12:49:32;2.03;;;0.90;;
4363;SDS011;15337;48.202;12.770;2022-09-27T12:52:09;1.53;;;0.83;;
4363;SDS011;15337;48.202;12.770;2022-09-27T12:54:56;1.10;;;0.90;;
4363;SDS011;15337;48.202;12.770;2022-09-27T12:58:05;1.30;;;0.90;;
4363;SDS011;15337;48.202;12.770;2022-09-27T13:00:41;1.20;;;1.00;;
4363;SDS011;15337;48.202;12.770;2022-09-27T13:03:22;2.20;;;1.10;;
4363;SDS011;15337;48.202;12.770;2022-09-27T13:06:09;1.50;;;1.40;;
4363;SDS011;15337;48.202;12.770;2022-09-27T13:08:50;4.10;;;1.10;;
4363;SDS011;15337;48.202;12.770;2022-09-27T13:11:35;1.40;;;1.23;;
4363;SDS011;15337;48.202;12.770;2022-09-27T13:14:10;1.63;;;1.53;;
4363;SDS011;15337;48.202;12.770;2022-09-27T13:16:43;1.90;;;1.50;;
4363;SDS011;15337;48.202;12.770;2022-09-27T13:19:35;1.40;;;1.30;;
4363;SDS011;15337;48.202;12.770;2022-09-27T13:22:05;2.23;;;1.63;;
4363;SDS011;15337;48.202;12.770;2022-09-27T13:24:43;3.00;;;2.80;;
4363;SDS011;15337;48.202;12.770;2022-09-27T13:36:16;5.17;;;2.10;;
4363;SDS011;15337;48.202;12.770;2022-09-27T13:38:56;1.50;;;1.40;;
4363;SDS011;15337;48.202;12.770;2022-09-27T13:44:42;2.30;;;2.10;;
4363;SDS011;15337;48.202;12.770;2022-09-27T13:47:23;2.63;;;2.43;;
4363;SDS011;15337;48.202;12.770;2022-09-27T13:49:58;3.43;;;2.83;;
4363;SDS011;15337;48.202;12.770;2022-09-27T13:52:37;2.17;;;1.57;;
4363;SDS011;15337;48.202;12.770;2022-09-27T13:58:19;4.30;;;1.53;;
4363;SDS011;15337;48.202;12.770;2022-09-27T14:01:02;2.07;;;1.90;;
4363;SDS011;15337;48.202;12.770;2022-09-27T14:03:52;2.07;;;1.87;;
4363;SDS011;15337;48.202;12.770;2022-09-27T14:06:24;2.43;;;1.43;;
4363;SDS011;15337;48.202;12.770;2022-09-27T14:08:55;2.30;;;1.70;;
4363;SDS011;15337;48.202;12.770;2022-09-27T14:11:25;5.93;;;1.40;;
4363;SDS011;15337;48.202;12.770;2022-09-27T14:13:55;1.37;;;1.20;;
4363;SDS011;15337;48.202;12.770;2022-09-27T14:16:23;3.20;;;2.63;;
4363;SDS011;15337;48.202;12.770;2022-09-27T14:18:54;2.27;;;1.50;;
4363;SDS011;15337;48.202;12.770;2022-09-27T14:21:29;1.63;;;1.53;;
4363;SDS011;15337;48.202;12.770;2022-09-27T14:27:04;1.63;;;1.53;;
4363;SDS011;15337;48.202;12.770;2022-09-27T14:29:37;1.30;;;1.17;;
4363;SDS011;15337;48.202;12.770;2022-09-27T14:32:09;1.50;;;1.40;;
4363;SDS011;15337;48.202;12.770;2022-09-27T14:34:37;1.60;;;1.50;;
4363;SDS011;15337;48.202;12.770;2022-09-27T14:37:10;1.60;;;1.50;;
4363;SDS011;15337;48.202;12.770;2022-09-27T14:39:54;5.13;;;4.70;;
4363;SDS011;15337;48.202;12.770;2022-09-27T14:42:23;3.50;;;3.10;;
4363;SDS011;15337;48.202;12.770;2022-09-27T14:44:52;1.70;;;1.53;;
4363;SDS011;15337;48.202;12.770;2022-09-27T14:47:25;1.30;;;1.20;;
4363;SDS011;15337;48.202;12.770;2022-09-27T14:49:54;1.30;;;1.20;;
4363;SDS011;15337;48.202;12.770;2022-09-27T14:52:26;2.37;;;1.30;;
4363;SDS011;15337;48.202;12.770;2022-09-27T14:54:57;1.10;;;1.00;;
4363;SDS011;15337;48.202;12.770;2022-09-27T14:57:26;1.30;;;1.20;;
4363;SDS011;15337;48.202;12.770;2022-09-27T14:59:57;1.50;;;1.40;;
4363;SDS011;15337;48.202;12.770;2022-09-27T15:02:27;1.70;;;1.60;;
4363;SDS011;15337;48.202;12.770;2022-09-27T15:04:54;1.10;;;0.97;;
4363;SDS011;15337;48.202;12.770;2022-09-27T15:07:21;2.23;;;1.57;;
4363;SDS011;15337;48.202;12.770;2022-09-27T15:09:50;1.83;;;1.50;;
4363;SDS011;15337;48.202;12.770;2022-09-27T15:12:21;2.67;;;2.17;;
4363;SDS011;15337;48.202;12.770;2022-09-27T15:14:51;2.00;;;1.90;;
4363;SDS011;15337;48.202;12.770;2022-09-27T15:17:20;1.50;;;1.20;;
4363;SDS011;15337;48.202;12.770;2022-09-27T15:19:55;2.33;;;1.63;;
4363;SDS011;15337;48.202;12.770;2022-09-27T15:22:30;1.90;;;1.70;;
4363;SDS011;15337;48.202;12.770;2022-09-27T15:25:18;1.70;;;1.60;;
4363;SDS011;15337;48.202;12.770;2022-09-27T15:27:58;3.30;;;3.10;;
4363;SDS011;15337;48.202;12.770;2022-09-27T15:30:32;3.70;;;2.40;;
4363;SDS011;15337;48.202;12.770;2022-09-27T15:33:00;3.00;;;2.33;;
4363;SDS011;15337;48.202;12.770;2022-09-27T15:35:28;2.23;;;2.03;;
4363;SDS011;15337;48.202;12.770;2022-09-27T15:40:58;4.10;;;1.80;;
4363;SDS011;15337;48.202;12.770;2022-09-27T15:43:28;2.13;;;1.97;;
4363;SDS011;15337;48.202;12.770;2022-09-27T15:45:57;2.47;;;2.27;;